sensor_id;sensor_type;location;lat;lon;timestamp;temperature;humidity
35682;DHT22;21805;51.022;4.782;2022-12-18T09:57:17;-1.20;99.90
35682;DHT22;21805;51.022;4.782;2022-12-18T09:59:43;-1.00;99.90
35682;DHT22;21805;51.022;4.782;2022-12-18T10:02:14;-1.00;99.90
35682;DHT22;21805;51.022;4.782;2022-12-18T10:04:40;-0.90;99.90
35682;DHT22;21805;51.022;4.782;2022-12-18T10:07:15;-0.80;99.90
35682;DHT22;21805;51.022;4.782;2022-12-18T10:15:13;-0.80;99.90
35682;DHT22;21805;51.022;4.782;2022-12-18T10:20:36;-0.80;99.90
35682;DHT22;21805;51.022;4.782;2022-12-18T10:23:08;-0.70;99.90
35682;DHT22;21805;51.022;4.782;2022-12-18T10:25:55;-0.60;99.90
35682;DHT22;21805;51.022;4.782;2022-12-18T10:28:24;-0.50;99.90
35682;DHT22;21805;51.022;4.782;2022-12-18T10:30:50;-0.40;99.90
35682;DHT22;21805;51.022;4.782;2022-12-18T10:33:21;-0.40;99.90
35682;DHT22;21805;51.022;4.782;2022-12-18T10:35:48;-0.40;99.90
35682;DHT22;21805;51.022;4.782;2022-12-18T10:40:49;-0.20;99.90
35682;DHT22;21805;51.022;4.782;2022-12-18T10:43:15;-0.20;99.90
35682;DHT22;21805;51.022;4.782;2022-12-18T10:45:44;-0.20;99.90
35682;DHT22;21805;51.022;4.782;2022-12-18T10:48:23;-0.20;99.90
35682;DHT22;21805;51.022;4.782;2022-12-18T10:50:49;-0.30;99.90
35682;DHT22;21805;51.022;4.782;2022-12-18T10:53:22;-0.10;99.90
35682;DHT22;21805;51.022;4.782;2022-12-18T10:55:47;-0.10;99.90
35682;DHT22;21805;51.022;4.782;2022-12-18T10:58:24;-0.10;99.90
35682;DHT22;21805;51.022;4.782;2022-12-18T11:06:20;0.10;99.90
35682;DHT22;21805;51.022;4.782;2022-12-18T11:09:01;0.20;99.90
35682;DHT22;21805;51.022;4.782;2022-12-18T11:11:27;0.20;99.90
35682;DHT22;21805;51.022;4.782;2022-12-18T11:13:57;0.20;99.90
35682;DHT22;21805;51.022;4.782;2022-12-18T11:16:24;0.30;99.90
35682;DHT22;21805;51.022;4.782;2022-12-18T11:18:49;0.20;99.90
35682;DHT22;21805;51.022;4.782;2022-12-18T11:21:15;0.30;99.90
35682;DHT22;21805;51.022;4.782;2022-12-18T11:23:59;0.40;99.90
35682;DHT22;21805;51.022;4.782;2022-12-18T11:26:33;0.40;99.90
35682;DHT22;21805;51.022;4.782;2022-12-18T11:29:10;0.50;99.90
35682;DHT22;21805;51.022;4.782;2022-12-18T11:31:40;0.50;99.90
35682;DHT22;21805;51.022;4.782;2022-12-18T11:36:33;0.70;99.90
35682;DHT22;21805;51.022;4.782;2022-12-18T11:39:01;0.70;99.90
35682;DHT22;21805;51.022;4.782;2022-12-18T11:41:39;0.70;99.90
35682;DHT22;21805;51.022;4.782;2022-12-18T11:44:26;0.80;99.90
35682;DHT22;21805;51.022;4.782;2022-12-18T11:49:37;0.80;99.90
35682;DHT22;21805;51.022;4.782;2022-12-18T11:54:33;0.90;99.90
35682;DHT22;21805;51.022;4.782;2022-12-18T12:18:17;1.20;99.90
35682;DHT22;21805;51.022;4.782;2022-12-18T12:20:49;1.20;99.90
35682;DHT22;21805;51.022;4.782;2022-12-18T12:23:23;1.20;99.90
35682;DHT22;21805;51.022;4.782;2022-12-18T12:25:56;1.10;99.90
35682;DHT22;21805;51.022;4.782;2022-12-18T12:28:40;1.20;99.90
35682;DHT22;21805;51.022;4.782;2022-12-18T12:38:43;1.40;99.90
35682;DHT22;21805;51.022;4.782;2022-12-18T12:41:14;1.50;99.90
35682;DHT22;21805;51.022;4.782;2022-12-18T12:44:01;1.50;99.90
35682;DHT22;21805;51.022;4.782;2022-12-18T12:46:29;1.60;99.90
35682;DHT22;21805;51.022;4.782;2022-12-18T12:49:00;1.60;99.90
35682;DHT22;21805;51.022;4.782;2022-12-18T12:51:34;1.70;99.90
35682;DHT22;21805;51.022;4.782;2022-12-18T12:56:41;1.70;99.90
35682;DHT22;21805;51.022;4.782;2022-12-18T12:59:15;1.70;99.90
35682;DHT22;21805;51.022;4.782;2022-12-18T13:06:49;1.80;99.90
35682;DHT22;21805;51.022;4.782;2022-12-18T13:09:18;1.70;99.90
35682;DHT22;21805;51.022;4.782;2022-12-18T13:11:44;1.80;99.90
35682;DHT22;21805;51.022;4.782;2022-12-18T13:19:44;1.90;99.90
35682;DHT22;21805;51.022;4.782;2022-12-18T13:22:23;1.90;99.90
35682;DHT22;21805;51.022;4.782;2022-12-18T13:24:50;1.90;99.90
35682;DHT22;21805;51.022;4.782;2022-12-18T13:30:46;1.90;99.90
35682;DHT22;21805;51.022;4.782;2022-12-18T13:38:24;1.90;99.90
35682;DHT22;21805;51.022;4.782;2022-12-18T13:41:01;1.80;99.90
35682;DHT22;21805;51.022;4.782;2022-12-18T13:46:01;1.80;99.90
35682;DHT22;21805;51.022;4.782;2022-12-18T13:48:29;1.80;99.90
35682;DHT22;21805;51.022;4.782;2022-12-18T13:55:55;1.70;99.90
35682;DHT22;21805;51.022;4.782;2022-12-18T13:58:23;1.60;99.90
35682;DHT22;21805;51.022;4.782;2022-12-18T14:00:51;1.60;99.90
35682;DHT22;21805;51.022;4.782;2022-12-18T14:03:26;1.60;99.90
35682;DHT22;21805;51.022;4.782;2022-12-18T14:05:53;1.60;99.90
35682;DHT22;21805;51.022;4.782;2022-12-18T14:08:24;1.70;99.90
35682;DHT22;21805;51.022;4.782;2022-12-18T14:13:35;1.70;99.90
35682;DHT22;21805;51.022;4.782;2022-12-18T14:16:03;1.80;99.90
35682;DHT22;21805;51.022;4.782;2022-12-18T14:21:00;1.60;99.90
35682;DHT22;21805;51.022;4.782;2022-12-18T14:23:40;1.70;99.90
35682;DHT22;21805;51.022;4.782;2022-12-18T14:26:22;1.80;99.90
35682;DHT22;21805;51.022;4.782;2022-12-18T14:28:48;1.70;99.90
35682;DHT22;21805;51.022;4.782;2022-12-18T14:31:24;1.70;99.90
35682;DHT22;21805;51.022;4.782;2022-12-18T14:33:51;1.80;99.90
35682;DHT22;21805;51.022;4.782;2022-12-18T14:36:22;1.80;99.90
35682;DHT22;21805;51.022;4.782;2022-12-18T14:38:55;1.70;99.90
35682;DHT22;21805;51.022;4.782;2022-12-18T14:41:21;1.70;99.90
35682;DHT22;21805;51.022;4.782;2022-12-18T14:43:51;1.70;99.90
35682;DHT22;21805;51.022;4.782;2022-12-18T14:48:56;1.50;99.90
35682;DHT22;21805;51.022;4.782;2022-12-18T14:51:24;1.50;99.90
35682;DHT22;21805;51.022;4.782;2022-12-18T14:53:57;1.50;99.90
35682;DHT22;21805;51.022;4.782;2022-12-18T14:59:02;1.40;99.90
35682;DHT22;21805;51.022;4.782;2022-12-18T15:01:34;1.40;99.90
35682;DHT22;21805;51.022;4.782;2022-12-18T15:04:04;1.50;99.90
35682;DHT22;21805;51.022;4.782;2022-12-18T15:06:36;1.60;99.90
35682;DHT22;21805;51.022;4.782;2022-12-18T15:09:04;1.50;99.90
35682;DHT22;21805;51.022;4.782;2022-12-18T15:11:42;1.40;99.90
35682;DHT22;21805;51.022;4.782;2022-12-18T15:14:28;1.40;99.90
35682;DHT22;21805;51.022;4.782;2022-12-18T15:16:56;1.40;99.90
35682;DHT22;21805;51.022;4.782;2022-12-18T15:19:32;1.40;99.90
35682;DHT22;21805;51.022;4.782;2022-12-18T15:21:58;1.40;99.90
35682;DHT22;21805;51.022;4.782;2022-12-18T15:26:55;1.30;99.90
35682;DHT22;21805;51.022;4.782;2022-12-18T15:29:21;1.10;99.90
35682;DHT22;21805;51.022;4.782;2022-12-18T15:32:04;1.10;99.90
35682;DHT22;21805;51.022;4.782;2022-12-18T15:34:30;1.10;99.90
35682;DHT22;21805;51.022;4.782;2022-12-18T15:37:02;1.20;99.90
35682;DHT22;21805;51.022;4.782;2022-12-18T15:39:28;1.10;99.90
35682;DHT22;21805;51.022;4.782;2022-12-18T15:41:56;1.20;99.90
35682;DHT22;21805;51.022;4.782;2022-12-18T15:44:43;1.30;99.90
35682;DHT22;21805;51.022;4.782;2022-12-18T15:47:12;1.30;99.90
35682;DHT22;21805;51.022;4.782;2022-12-18T15:49:38;1.30;99.90
35682;DHT22;21805;51.022;4.782;2022-12-18T15:52:05;1.30;99.90
35682;DHT22;21805;51.022;4.782;2022-12-18T15:54:34;1.30;99.90
35682;DHT22;21805;51.022;4.782;2022-12-18T15:57:19;1.30;99.90
35682;DHT22;21805;51.022;4.782;2022-12-18T15:59:52;1.40;99.90
35682;DHT22;21805;51.022;4.782;2022-12-18T16:02:20;1.50;99.90
35682;DHT22;21805;51.022;4.782;2022-12-18T16:04:51;1.60;99.90
35682;DHT22;21805;51.022;4.782;2022-12-18T16:07:17;1.50;99.90
35682;DHT22;21805;51.022;4.782;2022-12-18T16:09:44;1.50;99.90
35682;DHT22;21805;51.022;4.782;2022-12-18T16:12:14;1.50;99.90
35682;DHT22;21805;51.022;4.782;2022-12-18T16:14:44;1.60;99.90
35682;DHT22;21805;51.022;4.782;2022-12-18T16:17:10;1.60;99.90
35682;DHT22;21805;51.022;4.782;2022-12-18T16:19:39;1.60;99.90
35682;DHT22;21805;51.022;4.782;2022-12-18T16:22:05;1.60;99.90
35682;DHT22;21805;51.022;4.782;2022-12-18T16:24:32;1.60;99.90
35682;DHT22;21805;51.022;4.782;2022-12-18T16:26:59;1.60;99.90
35682;DHT22;21805;51.022;4.782;2022-12-18T16:29:28;1.50;99.90
35682;DHT22;21805;51.022;4.782;2022-12-18T16:31:57;1.50;99.90
35682;DHT22;21805;51.022;4.782;2022-12-18T16:34:29;1.50;99.90
35682;DHT22;21805;51.022;4.782;2022-12-18T16:39:48;1.60;99.90
35682;DHT22;21805;51.022;4.782;2022-12-18T16:42:15;1.60;99.90
35682;DHT22;21805;51.022;4.782;2022-12-18T16:44:43;1.60;99.90
35682;DHT22;21805;51.022;4.782;2022-12-18T16:47:12;1.70;99.90
35682;DHT22;21805;51.022;4.782;2022-12-18T16:49:47;1.60;99.90
35682;DHT22;21805;51.022;4.782;2022-12-18T16:52:16;1.70;99.90
35682;DHT22;21805;51.022;4.782;2022-12-18T16:54:42;1.80;99.90
35682;DHT22;21805;51.022;4.782;2022-12-18T16:57:12;1.80;99.90
35682;DHT22;21805;51.022;4.782;2022-12-18T16:59:40;1.80;99.90
35682;DHT22;21805;51.022;4.782;2022-12-18T17:02:12;1.80;99.90
35682;DHT22;21805;51.022;4.782;2022-12-18T17:04:42;1.90;99.90
35682;DHT22;21805;51.022;4.782;2022-12-18T17:09:39;1.90;99.90
35682;DHT22;21805;51.022;4.782;2022-12-18T17:12:05;2.00;99.90
35682;DHT22;21805;51.022;4.782;2022-12-18T17:14:33;2.00;99.90
35682;DHT22;21805;51.022;4.782;2022-12-18T17:17:02;2.00;99.90
35682;DHT22;21805;51.022;4.782;2022-12-18T17:19:28;2.00;99.90
35682;DHT22;21805;51.022;4.782;2022-12-18T17:21:56;2.00;99.90
35682;DHT22;21805;51.022;4.782;2022-12-18T17:24:22;2.00;99.90
35682;DHT22;21805;51.022;4.782;2022-12-18T17:26:54;2.10;99.90
35682;DHT22;21805;51.022;4.782;2022-12-18T17:29:20;2.10;99.90
35682;DHT22;21805;51.022;4.782;2022-12-18T17:31:48;2.10;99.90
35682;DHT22;21805;51.022;4.782;2022-12-18T17:34:15;2.00;99.90
35682;DHT22;21805;51.022;4.782;2022-12-18T17:39:15;2.10;99.90
35682;DHT22;21805;51.022;4.782;2022-12-18T17:41:44;2.20;99.90
35682;DHT22;21805;51.022;4.782;2022-12-18T17:44:10;2.20;99.90
35682;DHT22;21805;51.022;4.782;2022-12-18T17:46:39;2.20;99.90
35682;DHT22;21805;51.022;4.782;2022-12-18T17:49:21;2.00;99.90
35682;DHT22;21805;51.022;4.782;2022-12-18T17:51:47;2.10;99.90
35682;DHT22;21805;51.022;4.782;2022-12-18T17:54:15;2.20;99.90
35682;DHT22;21805;51.022;4.782;2022-12-18T17:56:41;2.20;99.90
35682;DHT22;21805;51.022;4.782;2022-12-18T17:59:12;2.30;99.90
35682;DHT22;21805;51.022;4.782;2022-12-18T18:01:44;2.30;99.90
35682;DHT22;21805;51.022;4.782;2022-12-18T18:04:11;2.40;99.90
35682;DHT22;21805;51.022;4.782;2022-12-18T18:06:43;2.40;99.90
35682;DHT22;21805;51.022;4.782;2022-12-18T18:09:09;2.40;99.90
35682;DHT22;21805;51.022;4.782;2022-12-18T18:11:35;2.40;99.90
35682;DHT22;21805;51.022;4.782;2022-12-18T18:14:20;2.40;99.90
35682;DHT22;21805;51.022;4.782;2022-12-18T18:16:49;2.40;99.90
35682;DHT22;21805;51.022;4.782;2022-12-18T18:19:16;2.50;99.90
35682;DHT22;21805;51.022;4.782;2022-12-18T18:21:43;2.40;99.90
35682;DHT22;21805;51.022;4.782;2022-12-18T18:24:12;2.50;99.90
35682;DHT22;21805;51.022;4.782;2022-12-18T18:26:38;2.50;99.90
35682;DHT22;21805;51.022;4.782;2022-12-18T18:29:06;2.50;99.90
35682;DHT22;21805;51.022;4.782;2022-12-18T18:31:32;2.50;99.90
35682;DHT22;21805;51.022;4.782;2022-12-18T18:34:02;2.50;99.90
35682;DHT22;21805;51.022;4.782;2022-12-18T18:36:28;2.40;99.90
35682;DHT22;21805;51.022;4.782;2022-12-18T18:43:57;2.40;99.90
35682;DHT22;21805;51.022;4.782;2022-12-18T18:46:30;2.40;99.90
35682;DHT22;21805;51.022;4.782;2022-12-18T18:48:56;2.40;99.90
35682;DHT22;21805;51.022;4.782;2022-12-18T18:51:21;2.30;99.90
35682;DHT22;21805;51.022;4.782;2022-12-18T18:53:48;2.30;99.90
35682;DHT22;21805;51.022;4.782;2022-12-18T18:56:16;2.30;99.90
35682;DHT22;21805;51.022;4.782;2022-12-18T18:58:45;2.30;99.90
35682;DHT22;21805;51.022;4.782;2022-12-18T19:01:18;2.20;99.90
35682;DHT22;21805;51.022;4.782;2022-12-18T19:03:46;2.20;99.90
35682;DHT22;21805;51.022;4.782;2022-12-18T19:06:16;2.30;99.90
35682;DHT22;21805;51.022;4.782;2022-12-18T19:08:44;2.30;99.90
35682;DHT22;21805;51.022;4.782;2022-12-18T19:11:13;2.30;99.90
35682;DHT22;21805;51.022;4.782;2022-12-18T19:13:58;2.40;99.90
35682;DHT22;21805;51.022;4.782;2022-12-18T19:16:27;2.30;99.90
35682;DHT22;21805;51.022;4.782;2022-12-18T19:18:53;2.30;99.90
35682;DHT22;21805;51.022;4.782;2022-12-18T19:21:38;2.30;99.90
35682;DHT22;21805;51.022;4.782;2022-12-18T19:24:05;2.30;99.90
35682;DHT22;21805;51.022;4.782;2022-12-18T19:26:34;2.40;99.90
35682;DHT22;21805;51.022;4.782;2022-12-18T19:29:10;2.40;99.90
35682;DHT22;21805;51.022;4.782;2022-12-18T19:34:05;2.40;99.90
35682;DHT22;21805;51.022;4.782;2022-12-18T19:36:41;2.50;99.90
35682;DHT22;21805;51.022;4.782;2022-12-18T19:39:14;2.40;99.90
35682;DHT22;21805;51.022;4.782;2022-12-18T19:41:42;2.40;99.90
35682;DHT22;21805;51.022;4.782;2022-12-18T19:44:11;2.30;99.90
35682;DHT22;21805;51.022;4.782;2022-12-18T19:46:37;2.40;99.90
35682;DHT22;21805;51.022;4.782;2022-12-18T19:49:03;2.40;99.90
35682;DHT22;21805;51.022;4.782;2022-12-18T19:51:29;2.40;99.90
35682;DHT22;21805;51.022;4.782;2022-12-18T19:53:58;2.40;99.90
35682;DHT22;21805;51.022;4.782;2022-12-18T19:56:25;2.40;99.90
35682;DHT22;21805;51.022;4.782;2022-12-18T19:58:51;2.40;99.90
35682;DHT22;21805;51.022;4.782;2022-12-18T20:01:18;2.40;99.90
35682;DHT22;21805;51.022;4.782;2022-12-18T20:03:45;2.60;99.90
35682;DHT22;21805;51.022;4.782;2022-12-18T20:06:18;2.60;99.90
35682;DHT22;21805;51.022;4.782;2022-12-18T20:08:46;2.60;99.90
35682;DHT22;21805;51.022;4.782;2022-12-18T20:13:43;2.50;99.90
35682;DHT22;21805;51.022;4.782;2022-12-18T20:18:41;2.50;99.90
35682;DHT22;21805;51.022;4.782;2022-12-18T20:21:07;2.50;99.90
35682;DHT22;21805;51.022;4.782;2022-12-18T20:23:36;2.60;99.90
35682;DHT22;21805;51.022;4.782;2022-12-18T20:26:03;2.60;99.90
35682;DHT22;21805;51.022;4.782;2022-12-18T20:28:30;2.70;99.90
35682;DHT22;21805;51.022;4.782;2022-12-18T20:31:04;2.70;99.90
35682;DHT22;21805;51.022;4.782;2022-12-18T20:33:35;2.60;99.90
35682;DHT22;21805;51.022;4.782;2022-12-18T20:36:05;2.60;99.90
35682;DHT22;21805;51.022;4.782;2022-12-18T20:38:34;2.70;99.90
35682;DHT22;21805;51.022;4.782;2022-12-18T20:41:07;2.60;99.90
35682;DHT22;21805;51.022;4.782;2022-12-18T20:43:34;2.60;99.90
35682;DHT22;21805;51.022;4.782;2022-12-18T20:46:03;2.70;99.90
35682;DHT22;21805;51.022;4.782;2022-12-18T20:51:06;2.60;99.90
35682;DHT22;21805;51.022;4.782;2022-12-18T20:53:33;2.60;99.90
35682;DHT22;21805;51.022;4.782;2022-12-18T20:55:59;2.60;99.90
35682;DHT22;21805;51.022;4.782;2022-12-18T20:58:29;2.60;99.90
35682;DHT22;21805;51.022;4.782;2022-12-18T21:01:04;2.70;99.90
35682;DHT22;21805;51.022;4.782;2022-12-18T21:03:30;2.70;99.90
35682;DHT22;21805;51.022;4.782;2022-12-18T21:05:56;2.90;99.90
35682;DHT22;21805;51.022;4.782;2022-12-18T21:08:22;2.80;99.90
35682;DHT22;21805;51.022;4.782;2022-12-18T21:10:48;2.80;99.90
35682;DHT22;21805;51.022;4.782;2022-12-18T21:13:16;2.80;99.90
35682;DHT22;21805;51.022;4.782;2022-12-18T21:15:45;2.80;99.90
35682;DHT22;21805;51.022;4.782;2022-12-18T21:18:11;2.70;99.90
35682;DHT22;21805;51.022;4.782;2022-12-18T21:20:51;2.80;99.90
35682;DHT22;21805;51.022;4.782;2022-12-18T21:23:17;2.80;99.90
35682;DHT22;21805;51.022;4.782;2022-12-18T21:25:45;2.80;99.90
35682;DHT22;21805;51.022;4.782;2022-12-18T21:28:11;2.80;99.90
35682;DHT22;21805;51.022;4.782;2022-12-18T21:30:42;2.80;99.90
35682;DHT22;21805;51.022;4.782;2022-12-18T21:33:08;2.80;99.90
35682;DHT22;21805;51.022;4.782;2022-12-18T21:35:36;2.80;99.90
35682;DHT22;21805;51.022;4.782;2022-12-18T21:38:05;2.90;99.90
35682;DHT22;21805;51.022;4.782;2022-12-18T21:43:22;2.90;99.90
35682;DHT22;21805;51.022;4.782;2022-12-18T21:46:07;2.80;99.90
35682;DHT22;21805;51.022;4.782;2022-12-18T21:48:33;3.00;99.90
35682;DHT22;21805;51.022;4.782;2022-12-18T21:54:09;2.90;99.90
35682;DHT22;21805;51.022;4.782;2022-12-18T22:02:52;3.00;99.90
35682;DHT22;21805;51.022;4.782;2022-12-18T22:05:24;3.00;99.90
35682;DHT22;21805;51.022;4.782;2022-12-18T22:10:20;3.00;99.90
35682;DHT22;21805;51.022;4.782;2022-12-18T22:15:17;3.20;99.90
35682;DHT22;21805;51.022;4.782;2022-12-18T22:17:50;3.20;99.90
35682;DHT22;21805;51.022;4.782;2022-12-18T22:20:17;3.10;99.90
35682;DHT22;21805;51.022;4.782;2022-12-18T22:22:42;3.30;99.90
35682;DHT22;21805;51.022;4.782;2022-12-18T22:25:10;3.30;99.90
35682;DHT22;21805;51.022;4.782;2022-12-18T22:27:36;3.40;99.90
35682;DHT22;21805;51.022;4.782;2022-12-18T22:30:03;3.30;99.90
35682;DHT22;21805;51.022;4.782;2022-12-18T22:32:29;3.30;99.90
35682;DHT22;21805;51.022;4.782;2022-12-18T22:34:56;3.30;99.90
35682;DHT22;21805;51.022;4.782;2022-12-18T22:37:22;3.40;99.90
35682;DHT22;21805;51.022;4.782;2022-12-18T22:39:48;3.40;99.90
35682;DHT22;21805;51.022;4.782;2022-12-18T22:42:16;3.50;99.90
35682;DHT22;21805;51.022;4.782;2022-12-18T22:44:44;3.50;99.90
35682;DHT22;21805;51.022;4.782;2022-12-18T22:47:10;3.50;99.90
35682;DHT22;21805;51.022;4.782;2022-12-18T22:49:36;3.50;99.90
35682;DHT22;21805;51.022;4.782;2022-12-18T22:52:05;3.50;99.90
35682;DHT22;21805;51.022;4.782;2022-12-18T22:54:31;3.60;99.90
35682;DHT22;21805;51.022;4.782;2022-12-18T22:56:57;3.60;99.90
35682;DHT22;21805;51.022;4.782;2022-12-18T22:59:24;3.60;99.90
35682;DHT22;21805;51.022;4.782;2022-12-18T23:01:54;3.70;99.90
35682;DHT22;21805;51.022;4.782;2022-12-18T23:04:25;3.60;99.90
35682;DHT22;21805;51.022;4.782;2022-12-18T23:06:53;3.70;99.90
35682;DHT22;21805;51.022;4.782;2022-12-18T23:09:19;3.70;99.90
35682;DHT22;21805;51.022;4.782;2022-12-18T23:11:46;3.70;99.90
35682;DHT22;21805;51.022;4.782;2022-12-18T23:14:16;3.70;99.90
35682;DHT22;21805;51.022;4.782;2022-12-18T23:16:45;3.50;99.90
35682;DHT22;21805;51.022;4.782;2022-12-18T23:21:40;3.70;99.90
35682;DHT22;21805;51.022;4.782;2022-12-18T23:24:15;3.70;99.90
35682;DHT22;21805;51.022;4.782;2022-12-18T23:26:40;3.70;99.90
35682;DHT22;21805;51.022;4.782;2022-12-18T23:29:13;3.70;99.90
35682;DHT22;21805;51.022;4.782;2022-12-18T23:31:39;3.80;99.90
35682;DHT22;21805;51.022;4.782;2022-12-18T23:34:06;3.80;99.90
35682;DHT22;21805;51.022;4.782;2022-12-18T23:36:33;3.70;99.90
35682;DHT22;21805;51.022;4.782;2022-12-18T23:39:15;3.70;99.90
35682;DHT22;21805;51.022;4.782;2022-12-18T23:41:49;3.70;99.90
35682;DHT22;21805;51.022;4.782;2022-12-18T23:44:20;3.90;99.90
35682;DHT22;21805;51.022;4.782;2022-12-18T23:46:53;3.90;99.90
35682;DHT22;21805;51.022;4.782;2022-12-18T23:49:23;3.90;99.90
35682;DHT22;21805;51.022;4.782;2022-12-18T23:51:52;3.90;99.90
35682;DHT22;21805;51.022;4.782;2022-12-18T23:54:18;4.00;99.90
35682;DHT22;21805;51.022;4.782;2022-12-18T23:56:47;4.00;99.90
35682;DHT22;21805;51.022;4.782;2022-12-18T23:59:15;4.10;99.90
